createdAt,value
2023-05-15T00:01:26.251Z,10.63
2023-05-15T00:03:53.062Z,10.56
2023-05-15T00:06:20.096Z,10.53
2023-05-15T00:08:46.718Z,10.49
2023-05-15T00:11:13.222Z,10.40
2023-05-15T00:13:39.846Z,10.36
2023-05-15T00:16:08.433Z,10.34
2023-05-15T00:18:35.105Z,10.27
2023-05-15T00:21:02.050Z,10.24
2023-05-15T00:23:28.534Z,10.21
2023-05-15T00:25:55.346Z,10.17
2023-05-15T00:28:22.819Z,10.14
2023-05-15T00:30:49.963Z,10.10
2023-05-15T00:33:16.816Z,10.11
2023-05-15T00:35:43.936Z,10.10
2023-05-15T00:38:11.986Z,10.06
2023-05-15T00:40:39.755Z,10.05
2023-05-15T00:43:06.862Z,10.05
2023-05-15T00:45:34.155Z,10.03
2023-05-15T00:48:01.692Z,10.02
2023-05-15T00:50:29.299Z,10.04
2023-05-15T00:52:56.307Z,10.05
2023-05-15T00:55:23.256Z,10.10
2023-05-15T00:57:51.351Z,10.07
2023-05-15T01:00:18.456Z,10.07
2023-05-15T01:02:45.076Z,10.04
2023-05-15T01:05:11.688Z,10.06
2023-05-15T01:07:48.188Z,10.03
2023-05-15T01:10:16.601Z,10.03
2023-05-15T01:12:44.832Z,10.03
2023-05-15T01:15:11.494Z,10.04
2023-05-15T01:17:38.515Z,10.07
2023-05-15T01:20:08.371Z,10.01
2023-05-15T01:22:43.995Z,9.97
2023-05-15T01:25:13.971Z,9.95
2023-05-15T01:27:48.863Z,9.92
2023-05-15T01:30:33.083Z,9.90
2023-05-15T01:33:13.207Z,9.82
2023-05-15T01:35:48.901Z,9.81
2023-05-15T01:38:21.520Z,9.81
2023-05-15T01:40:48.608Z,9.82
2023-05-15T01:43:22.015Z,9.82
2023-05-15T01:45:48.592Z,9.83
2023-05-15T01:48:15.551Z,9.90
2023-05-15T01:50:45.653Z,9.94
2023-05-15T01:53:13.866Z,9.94
2023-05-15T01:55:41.673Z,9.99
2023-05-15T01:58:09.503Z,9.99
2023-05-15T02:00:38.184Z,10.02
2023-05-15T02:03:06.045Z,10.00
2023-05-15T02:05:37.141Z,9.98
2023-05-15T02:08:04.311Z,9.95
2023-05-15T02:10:32.962Z,9.90
2023-05-15T02:13:00.835Z,9.85
2023-05-15T02:15:29.858Z,9.84
2023-05-15T02:17:56.702Z,9.84
2023-05-15T02:20:23.476Z,9.89
2023-05-15T02:22:50.383Z,9.95
2023-05-15T02:25:17.237Z,9.98
2023-05-15T02:27:55.923Z,10.03
2023-05-15T02:30:54.096Z,9.97
2023-05-15T02:33:38.294Z,10.00
2023-05-15T02:36:08.538Z,10.03
2023-05-15T02:38:49.458Z,9.96
2023-05-15T02:41:17.080Z,10.02
2023-05-15T02:43:47.661Z,10.06
2023-05-15T02:46:14.840Z,10.13
2023-05-15T02:48:43.508Z,10.16
2023-05-15T02:51:10.693Z,10.17
2023-05-15T02:53:43.225Z,10.16
2023-05-15T02:56:10.389Z,10.06
2023-05-15T02:58:39.045Z,10.07
2023-05-15T03:01:06.013Z,10.04
2023-05-15T03:03:32.973Z,10.02
2023-05-15T03:05:59.659Z,9.94
2023-05-15T03:08:26.275Z,9.89
2023-05-15T03:10:52.773Z,9.92
2023-05-15T03:13:20.834Z,9.89
2023-05-15T03:15:47.322Z,9.83
2023-05-15T03:18:14.491Z,9.83
2023-05-15T03:20:42.438Z,9.82
2023-05-15T03:23:09.037Z,9.75
2023-05-15T03:25:35.557Z,9.70
2023-05-15T03:28:02.286Z,9.67
2023-05-15T03:30:28.676Z,9.63
2023-05-15T03:32:55.143Z,9.62
2023-05-15T03:35:21.616Z,9.61
2023-05-15T03:37:48.192Z,9.58
2023-05-15T03:40:15.005Z,9.61
2023-05-15T03:42:41.782Z,9.61
2023-05-15T03:45:08.923Z,9.59
2023-05-15T03:47:35.553Z,9.59
2023-05-15T03:50:04.102Z,9.60
2023-05-15T03:52:30.604Z,9.51
2023-05-15T03:54:57.359Z,9.46
2023-05-15T03:57:24.072Z,9.49
2023-05-15T03:59:50.792Z,9.51
2023-05-15T04:02:18.817Z,9.50
2023-05-15T04:04:45.467Z,9.51
2023-05-15T04:07:12.022Z,9.51
2023-05-15T04:09:38.798Z,9.52
2023-05-15T04:12:06.546Z,9.57
2023-05-15T04:14:33.140Z,9.63
2023-05-15T04:16:59.660Z,9.74
2023-05-15T04:19:28.176Z,9.88
2023-05-15T04:21:54.683Z,10.05
2023-05-15T04:24:21.208Z,10.01
2023-05-15T04:26:47.731Z,10.00
2023-05-15T04:29:14.538Z,10.07
2023-05-15T04:31:41.585Z,10.16
2023-05-15T04:34:09.646Z,10.32
2023-05-15T04:36:36.554Z,10.28
2023-05-15T04:39:03.059Z,10.23
2023-05-15T04:41:29.663Z,10.33
2023-05-15T04:43:57.493Z,10.36
2023-05-15T04:46:24.035Z,10.35
2023-05-15T04:48:53.512Z,10.35
2023-05-15T04:51:20.312Z,10.40
2023-05-15T04:53:47.218Z,10.63
2023-05-15T04:56:13.771Z,11.49
2023-05-15T04:58:42.138Z,12.37
2023-05-15T05:01:08.603Z,12.20
2023-05-15T05:03:35.207Z,12.99
2023-05-15T05:06:01.885Z,13.60
2023-05-15T05:08:28.676Z,13.42
2023-05-15T05:10:57.283Z,14.17
2023-05-15T05:13:23.832Z,14.08
2023-05-15T05:15:50.568Z,13.92
2023-05-15T05:18:17.336Z,13.54
2023-05-15T05:20:44.233Z,12.62
2023-05-15T05:23:11.052Z,12.68
2023-05-15T05:25:37.952Z,12.82
2023-05-15T05:28:04.662Z,12.47
2023-05-15T05:30:31.575Z,13.01
2023-05-15T05:32:58.468Z,13.30
2023-05-15T05:35:26.097Z,12.82
2023-05-15T05:37:53.217Z,12.62
2023-05-15T05:40:19.725Z,13.10
2023-05-15T05:42:46.333Z,13.14
2023-05-15T05:45:12.827Z,13.46
2023-05-15T05:47:39.691Z,13.64
2023-05-15T05:50:07.360Z,13.66
2023-05-15T05:52:33.984Z,13.64
2023-05-15T05:55:00.611Z,14.05
2023-05-15T05:57:27.653Z,14.19
2023-05-15T05:59:54.428Z,13.61
2023-05-15T06:02:21.851Z,13.56
2023-05-15T06:04:48.348Z,13.70
2023-05-15T06:07:15.042Z,13.56
2023-05-15T06:09:42.342Z,13.36
2023-05-15T06:12:09.195Z,13.90
2023-05-15T06:14:35.665Z,14.05
2023-05-15T06:17:03.099Z,14.53
2023-05-15T06:19:30.666Z,15.38
2023-05-15T06:21:57.498Z,15.23
2023-05-15T06:24:24.206Z,15.60
2023-05-15T06:26:52.417Z,15.42
2023-05-15T06:29:19.535Z,16.25
2023-05-15T06:31:47.242Z,16.92
2023-05-15T06:34:14.079Z,16.93
2023-05-15T06:36:40.848Z,15.83
2023-05-15T06:39:08.371Z,15.85
2023-05-15T06:41:35.077Z,14.93
2023-05-15T06:44:01.689Z,14.35
2023-05-15T06:46:28.242Z,13.91
2023-05-15T06:48:54.797Z,15.02
2023-05-15T06:51:21.517Z,15.40
2023-05-15T06:53:49.125Z,16.88
2023-05-15T06:56:15.735Z,17.24
2023-05-15T06:58:42.570Z,16.24
2023-05-15T07:01:09.598Z,15.47
2023-05-15T07:03:36.588Z,15.96
2023-05-15T07:06:03.245Z,16.60
2023-05-15T07:08:30.086Z,16.14
2023-05-15T07:10:56.613Z,15.40
2023-05-15T07:13:24.121Z,15.69
2023-05-15T07:15:54.134Z,15.05
2023-05-15T07:18:20.804Z,14.92
2023-05-15T07:20:47.424Z,15.75
2023-05-15T07:23:15.646Z,16.38
2023-05-15T07:25:42.245Z,16.68
2023-05-15T07:28:08.973Z,16.77
2023-05-15T07:30:35.700Z,16.74
2023-05-15T07:33:02.417Z,16.75
2023-05-15T07:35:30.610Z,17.28
2023-05-15T07:37:57.337Z,17.28
2023-05-15T07:40:24.150Z,17.33
2023-05-15T07:42:51.025Z,17.40
2023-05-15T07:45:18.146Z,17.48
2023-05-15T07:47:47.321Z,17.15
2023-05-15T07:50:14.355Z,17.47
2023-05-15T07:52:41.258Z,17.72
2023-05-15T07:55:09.018Z,16.80
2023-05-15T07:57:35.696Z,17.11
2023-05-15T08:00:02.622Z,16.83
2023-05-15T08:02:29.753Z,17.03
2023-05-15T08:04:56.343Z,16.84
2023-05-15T08:07:23.238Z,17.52
2023-05-15T08:09:49.836Z,17.67
2023-05-15T08:12:21.870Z,17.16
2023-05-15T08:14:53.576Z,17.35
2023-05-15T08:17:22.281Z,17.27
2023-05-15T08:19:49.510Z,17.02
2023-05-15T08:22:18.812Z,17.18
2023-05-15T08:24:46.115Z,16.90
2023-05-15T08:27:12.933Z,17.35
2023-05-15T08:29:39.915Z,17.60
2023-05-15T08:32:07.541Z,17.59
2023-05-15T08:34:34.174Z,17.83
2023-05-15T08:37:01.061Z,18.30
2023-05-15T08:39:27.770Z,18.12
2023-05-15T08:42:00.790Z,17.68
2023-05-15T08:44:28.812Z,17.47
2023-05-15T08:46:58.465Z,17.36
2023-05-15T08:49:42.384Z,17.63
2023-05-15T08:52:10.330Z,17.97
2023-05-15T08:54:38.538Z,18.02
2023-05-15T08:57:06.069Z,17.81
2023-05-15T08:59:33.267Z,18.15
2023-05-15T09:02:02.179Z,18.14
2023-05-15T09:04:29.252Z,17.68
2023-05-15T09:06:57.296Z,17.54
2023-05-15T09:09:24.882Z,17.34
2023-05-15T09:11:52.409Z,17.53
2023-05-15T09:14:19.627Z,18.11
2023-05-15T09:16:48.402Z,18.27
2023-05-15T09:19:18.075Z,18.77
2023-05-15T09:21:44.807Z,18.24
2023-05-15T09:24:19.528Z,18.15
2023-05-15T09:26:48.671Z,17.93
2023-05-15T09:29:19.133Z,18.10
2023-05-15T09:31:49.849Z,17.90
2023-05-15T09:34:16.634Z,18.26
2023-05-15T09:36:43.965Z,17.94
2023-05-15T09:39:10.754Z,17.70
2023-05-15T09:41:42.234Z,18.00
2023-05-15T09:44:21.417Z,18.78
2023-05-15T09:46:49.487Z,18.88
2023-05-15T09:49:16.150Z,19.61
2023-05-15T09:51:44.330Z,19.44
2023-05-15T09:54:15.818Z,19.10
2023-05-15T09:56:45.313Z,19.18
2023-05-15T09:59:16.723Z,19.31
2023-05-15T10:01:46.701Z,18.79
2023-05-15T10:04:14.489Z,18.44
2023-05-15T10:06:43.931Z,19.14
2023-05-15T10:09:11.697Z,18.79
2023-05-15T10:11:43.186Z,19.26
2023-05-15T10:14:12.445Z,19.53
2023-05-15T10:16:41.560Z,19.80
2023-05-15T10:19:10.873Z,18.85
2023-05-15T10:21:40.739Z,19.46
2023-05-15T10:24:08.627Z,19.78
2023-05-15T10:26:42.994Z,18.45
2023-05-15T10:29:14.439Z,17.74
2023-05-15T10:31:44.224Z,17.16
2023-05-15T10:34:11.089Z,16.98
2023-05-15T10:36:38.981Z,16.75
2023-05-15T10:39:07.732Z,16.54
2023-05-15T10:41:37.338Z,17.02
2023-05-15T10:44:04.289Z,17.77
2023-05-15T10:46:34.112Z,17.89
2023-05-15T10:49:00.802Z,18.88
2023-05-15T10:51:29.586Z,19.27
2023-05-15T10:53:56.748Z,19.73
2023-05-15T10:56:30.169Z,19.20
2023-05-15T10:58:58.596Z,19.46
2023-05-15T11:01:27.545Z,19.94
2023-05-15T11:04:09.685Z,20.06
2023-05-15T11:06:38.525Z,20.50
2023-05-15T11:09:28.346Z,19.86
2023-05-15T11:11:57.274Z,19.15
2023-05-15T11:14:29.350Z,18.52
2023-05-15T11:16:56.629Z,18.31
2023-05-15T11:19:29.305Z,18.77
2023-05-15T11:22:01.514Z,19.15
2023-05-15T11:24:33.912Z,18.92
2023-05-15T11:27:02.143Z,19.17
2023-05-15T11:29:30.457Z,19.83
2023-05-15T11:31:57.589Z,20.13
2023-05-15T11:34:35.665Z,19.91
2023-05-15T11:37:02.259Z,19.93
2023-05-15T11:39:29.357Z,20.08
2023-05-15T11:41:56.838Z,19.32
2023-05-15T11:44:24.547Z,19.19
2023-05-15T11:46:51.899Z,18.49
2023-05-15T11:49:24.749Z,19.08
2023-05-15T11:51:51.826Z,19.48
2023-05-15T11:54:19.932Z,20.03
2023-05-15T11:56:46.584Z,20.17
2023-05-15T11:59:14.157Z,20.84
2023-05-15T12:01:45.378Z,21.01
2023-05-15T12:04:18.644Z,20.38
2023-05-15T12:06:47.418Z,19.81
2023-05-15T12:09:18.115Z,19.04
2023-05-15T12:11:58.178Z,18.52
2023-05-15T12:14:31.980Z,18.56
2023-05-15T12:17:02.256Z,18.75
2023-05-15T12:19:29.372Z,19.59
2023-05-15T12:21:58.394Z,19.65
2023-05-15T12:24:27.162Z,20.43
2023-05-15T12:26:57.304Z,20.53
2023-05-15T12:29:24.613Z,19.30
2023-05-15T12:31:56.315Z,18.93
2023-05-15T12:34:23.961Z,18.24
2023-05-15T12:36:51.019Z,18.15
2023-05-15T12:39:19.029Z,18.29
2023-05-15T12:41:47.689Z,18.27
2023-05-15T12:44:18.269Z,17.92
2023-05-15T12:46:46.462Z,17.99
2023-05-15T12:49:13.381Z,18.33
2023-05-15T12:51:46.396Z,18.24
2023-05-15T12:54:21.639Z,18.45
2023-05-15T12:56:48.579Z,18.72
2023-05-15T12:59:16.864Z,18.59
2023-05-15T13:01:43.500Z,18.41
2023-05-15T13:04:11.076Z,18.45
2023-05-15T13:06:47.048Z,18.40
2023-05-15T13:09:15.116Z,17.95
2023-05-15T13:11:47.675Z,18.26
2023-05-15T13:14:17.976Z,17.92
2023-05-15T13:16:47.879Z,18.37
2023-05-15T13:19:14.880Z,18.89
2023-05-15T13:21:41.898Z,19.66
2023-05-15T13:24:09.125Z,19.25
2023-05-15T13:26:36.427Z,19.58
2023-05-15T13:29:02.951Z,19.66
2023-05-15T13:31:31.421Z,19.10
2023-05-15T13:33:57.955Z,18.65
2023-05-15T13:36:24.755Z,18.70
2023-05-15T13:38:52.632Z,18.56
2023-05-15T13:41:19.616Z,18.42
2023-05-15T13:43:46.198Z,18.23
2023-05-15T13:46:13.255Z,18.34
2023-05-15T13:48:40.073Z,18.72
2023-05-15T13:51:07.851Z,19.23
2023-05-15T13:53:43.159Z,19.46
2023-05-15T13:56:09.992Z,19.97
2023-05-15T13:58:36.695Z,20.19
2023-05-15T14:01:05.748Z,20.47
2023-05-15T14:03:32.757Z,20.47
2023-05-15T14:05:59.523Z,19.99
2023-05-15T14:08:26.703Z,19.18
2023-05-15T14:10:53.267Z,19.12
2023-05-15T14:13:22.626Z,19.36
2023-05-15T14:15:50.140Z,19.67
2023-05-15T14:18:16.858Z,20.02
2023-05-15T14:20:43.476Z,20.02
2023-05-15T14:23:13.497Z,19.65
2023-05-15T14:25:41.426Z,19.65
2023-05-15T14:28:10.092Z,19.04
2023-05-15T14:30:37.909Z,19.10
2023-05-15T14:33:04.817Z,19.34
2023-05-15T14:35:31.756Z,19.56
2023-05-15T14:37:58.439Z,19.50
2023-05-15T14:40:25.728Z,19.75
2023-05-15T14:42:52.521Z,19.77
2023-05-15T14:45:19.366Z,20.26
2023-05-15T14:47:46.594Z,20.99
2023-05-15T14:50:13.208Z,20.98
2023-05-15T14:52:40.002Z,20.63
2023-05-15T14:55:11.045Z,19.91
2023-05-15T14:57:38.484Z,19.70
2023-05-15T15:00:07.177Z,19.69
2023-05-15T15:02:34.309Z,19.70
2023-05-15T15:05:01.521Z,19.16
2023-05-15T15:07:30.968Z,18.95
2023-05-15T15:09:58.172Z,19.00
2023-05-15T15:12:25.501Z,19.15
2023-05-15T15:14:52.115Z,19.59
2023-05-15T15:17:18.599Z,19.50
2023-05-15T15:19:46.990Z,19.57
2023-05-15T15:22:13.818Z,19.31
2023-05-15T15:24:40.449Z,19.31
2023-05-15T15:27:07.212Z,19.35
2023-05-15T15:29:33.783Z,19.09
2023-05-15T15:32:00.489Z,19.04
2023-05-15T15:34:27.081Z,19.04
2023-05-15T15:36:54.317Z,18.26
2023-05-15T15:39:21.216Z,17.36
2023-05-15T15:41:47.909Z,17.29
2023-05-15T15:44:14.460Z,17.11
2023-05-15T15:46:42.250Z,16.91
2023-05-15T15:49:10.204Z,16.83
2023-05-15T15:51:36.705Z,16.78
2023-05-15T15:54:07.586Z,16.79
2023-05-15T15:56:37.171Z,16.73
2023-05-15T15:59:04.507Z,16.44
2023-05-15T16:01:31.358Z,15.97
2023-05-15T16:03:58.400Z,15.77
2023-05-15T16:06:25.507Z,15.52
2023-05-15T16:08:52.355Z,15.54
2023-05-15T16:11:19.270Z,15.67
2023-05-15T16:13:46.205Z,15.60
2023-05-15T16:16:12.860Z,15.56
2023-05-15T16:18:40.012Z,15.69
2023-05-15T16:21:07.893Z,15.73
2023-05-15T16:23:38.120Z,15.81
2023-05-15T16:26:05.946Z,15.84
2023-05-15T16:28:32.633Z,15.97
2023-05-15T16:31:00.416Z,16.13
2023-05-15T16:33:29.284Z,16.14
2023-05-15T16:35:56.162Z,16.14
2023-05-15T16:38:23.549Z,16.20
2023-05-15T16:40:50.372Z,16.17
2023-05-15T16:43:17.333Z,16.15
2023-05-15T16:45:43.983Z,16.26
2023-05-15T16:48:10.912Z,16.27
2023-05-15T16:50:37.950Z,16.29
2023-05-15T16:53:05.177Z,16.29
2023-05-15T16:55:32.964Z,16.22
2023-05-15T16:57:59.639Z,16.30
2023-05-15T17:00:26.828Z,16.24
2023-05-15T17:02:54.144Z,16.13
2023-05-15T17:05:20.748Z,16.11
2023-05-15T17:07:48.332Z,16.04
2023-05-15T17:10:15.202Z,15.95
2023-05-15T17:12:42.067Z,15.81
2023-05-15T17:15:09.421Z,15.79
2023-05-15T17:17:36.084Z,15.77
2023-05-15T17:20:04.248Z,15.75
2023-05-15T17:22:30.839Z,15.73
2023-05-15T17:24:57.857Z,15.78
2023-05-15T17:27:24.984Z,15.74
2023-05-15T17:29:51.804Z,15.72
2023-05-15T17:32:19.174Z,15.63
2023-05-15T17:34:46.529Z,15.52
2023-05-15T17:37:13.695Z,15.59
2023-05-15T17:39:40.417Z,15.55
2023-05-15T17:42:07.321Z,15.61
2023-05-15T17:44:34.073Z,15.45
2023-05-15T17:47:04.479Z,15.53
2023-05-15T17:49:32.918Z,15.40
2023-05-15T17:51:59.764Z,15.43
2023-05-15T17:54:26.593Z,15.36
2023-05-15T17:56:53.193Z,15.34
2023-05-15T17:59:19.940Z,15.26
2023-05-15T18:01:48.111Z,15.17
2023-05-15T18:04:16.248Z,14.83
2023-05-15T18:06:43.142Z,14.60
2023-05-15T18:09:11.453Z,14.55
2023-05-15T18:11:38.093Z,14.56
2023-05-15T18:14:06.497Z,14.53
2023-05-15T18:16:33.275Z,14.42
2023-05-15T18:19:00.157Z,14.39
2023-05-15T18:21:28.381Z,14.26
2023-05-15T18:23:57.289Z,14.16
2023-05-15T18:26:23.836Z,14.11
2023-05-15T18:28:50.348Z,14.02
2023-05-15T18:31:17.185Z,13.89
2023-05-15T18:33:45.048Z,13.77
2023-05-15T18:36:12.305Z,13.70
2023-05-15T18:38:40.314Z,13.63
2023-05-15T18:41:16.179Z,13.60
2023-05-15T18:43:43.321Z,13.54
2023-05-15T18:46:10.065Z,13.47
2023-05-15T18:48:36.606Z,13.44
2023-05-15T18:51:03.327Z,13.39
2023-05-15T18:53:30.116Z,13.39
2023-05-15T18:55:57.270Z,13.47
2023-05-15T18:58:26.273Z,13.29
2023-05-15T19:00:52.885Z,13.23
2023-05-15T19:03:19.860Z,13.18
2023-05-15T19:05:46.682Z,13.12
2023-05-15T19:08:13.594Z,13.00
2023-05-15T19:10:40.531Z,12.88
2023-05-15T19:13:07.422Z,12.80
2023-05-15T19:15:34.450Z,12.80
2023-05-15T19:18:01.615Z,12.70
2023-05-15T19:20:30.082Z,12.66
2023-05-15T19:22:56.929Z,12.67
2023-05-15T19:25:24.115Z,12.52
2023-05-15T19:28:00.723Z,12.55
2023-05-15T19:30:30.005Z,12.56
2023-05-15T19:32:57.175Z,12.57
2023-05-15T19:35:24.158Z,12.55
2023-05-15T19:37:50.842Z,12.41
2023-05-15T19:40:17.891Z,12.34
2023-05-15T19:42:44.773Z,12.33
2023-05-15T19:45:13.254Z,12.36
2023-05-15T19:47:42.202Z,12.45
2023-05-15T19:50:10.634Z,12.47
2023-05-15T19:52:38.378Z,12.39
2023-05-15T19:55:06.504Z,12.37
2023-05-15T19:57:35.045Z,12.38
2023-05-15T20:00:07.257Z,12.33
2023-05-15T20:02:34.247Z,12.34
2023-05-15T20:05:00.903Z,12.32
2023-05-15T20:07:27.494Z,12.28
2023-05-15T20:09:55.493Z,12.32
2023-05-15T20:12:23.015Z,12.30
2023-05-15T20:14:50.329Z,12.24
2023-05-15T20:17:17.430Z,12.18
2023-05-15T20:19:44.420Z,12.11
2023-05-15T20:22:11.138Z,12.09
2023-05-15T20:24:39.369Z,12.06
2023-05-15T20:27:05.985Z,12.02
2023-05-15T20:29:32.687Z,11.96
2023-05-15T20:31:59.448Z,11.96
2023-05-15T20:34:26.236Z,11.89
2023-05-15T20:36:52.967Z,11.88
2023-05-15T20:39:20.343Z,11.82
2023-05-15T20:41:46.934Z,11.80
2023-05-15T20:44:13.527Z,11.78
2023-05-15T20:46:41.855Z,11.82
2023-05-15T20:49:09.064Z,11.75
2023-05-15T20:51:36.062Z,11.77
2023-05-15T20:54:02.868Z,11.77
2023-05-15T20:56:30.094Z,11.79
2023-05-15T20:58:59.500Z,11.75
2023-05-15T21:01:26.479Z,11.76
2023-05-15T21:03:53.439Z,11.84
2023-05-15T21:06:20.475Z,11.85
2023-05-15T21:08:47.753Z,11.91
2023-05-15T21:11:14.632Z,11.91
2023-05-15T21:13:42.375Z,11.88
2023-05-15T21:16:09.194Z,11.85
2023-05-15T21:18:35.939Z,11.79
2023-05-15T21:21:02.585Z,11.72
2023-05-15T21:23:29.118Z,11.65
2023-05-15T21:25:55.520Z,11.59
2023-05-15T21:28:22.352Z,11.56
2023-05-15T21:30:49.022Z,11.52
2023-05-15T21:33:15.638Z,11.50
2023-05-15T21:35:42.184Z,11.44
2023-05-15T21:38:17.519Z,11.44
2023-05-15T21:40:44.964Z,11.44
2023-05-15T21:43:11.593Z,11.43
2023-05-15T21:45:38.404Z,11.39
2023-05-15T21:48:05.352Z,11.40
2023-05-15T21:50:32.141Z,11.39
2023-05-15T21:52:58.648Z,11.35
2023-05-15T21:55:25.236Z,11.39
2023-05-15T21:57:51.747Z,11.41
2023-05-15T22:00:18.974Z,11.37
2023-05-15T22:02:45.765Z,11.29
2023-05-15T22:05:12.806Z,11.22
2023-05-15T22:07:39.304Z,11.30
2023-05-15T22:10:07.011Z,11.30
2023-05-15T22:12:34.009Z,11.19
2023-05-15T22:15:00.592Z,11.13
2023-05-15T22:17:27.778Z,11.14
2023-05-15T22:19:54.563Z,11.09
2023-05-15T22:22:22.842Z,11.07
2023-05-15T22:24:49.664Z,10.96
2023-05-15T22:27:16.544Z,10.86
2023-05-15T22:29:43.574Z,10.85
2023-05-15T22:32:10.470Z,10.85
2023-05-15T22:34:37.278Z,10.81
2023-05-15T22:37:04.139Z,10.76
2023-05-15T22:39:30.940Z,10.79
2023-05-15T22:41:57.660Z,10.74
2023-05-15T22:44:25.442Z,10.69
2023-05-15T22:46:52.056Z,10.69
2023-05-15T22:49:18.669Z,10.63
2023-05-15T22:51:45.089Z,10.59
2023-05-15T22:54:11.591Z,10.54
2023-05-15T22:56:38.102Z,10.52
2023-05-15T22:59:05.008Z,10.50
2023-05-15T23:01:31.728Z,10.46
2023-05-15T23:03:58.399Z,10.40
2023-05-15T23:06:25.654Z,10.33
2023-05-15T23:08:52.463Z,10.26
2023-05-15T23:11:19.706Z,10.18
2023-05-15T23:13:46.210Z,10.15
2023-05-15T23:16:13.288Z,10.11
2023-05-15T23:18:40.138Z,10.10
2023-05-15T23:21:06.903Z,10.08
2023-05-15T23:23:35.430Z,10.06
2023-05-15T23:26:04.444Z,10.03
2023-05-15T23:28:30.944Z,9.97
2023-05-15T23:30:57.508Z,9.94
2023-05-15T23:33:24.068Z,9.93
2023-05-15T23:35:50.786Z,9.95
2023-05-15T23:38:17.542Z,9.95
2023-05-15T23:40:46.417Z,9.96
2023-05-15T23:43:13.452Z,9.92
2023-05-15T23:45:40.313Z,9.88
2023-05-15T23:48:06.759Z,9.87
2023-05-15T23:50:33.627Z,9.84
2023-05-15T23:53:00.359Z,9.79
2023-05-15T23:55:26.948Z,9.79
2023-05-15T23:57:53.655Z,9.80
